Time;durP1;ratioP1;P1;durP2;ratioP2;P2;SDS_P1;SDS_P2;PMS_P1;PMS_P2;Temp;Humidity;BMP_temperature;BMP_pressure;BME280_temperature;BME280_humidity;BME280_pressure;Samples;Min_cycle;Max_cycle;Signal;HPM_P1;HPM_P2
2023/07/29 00:01:49;;;;;;;8.65;6.22;;;;;;;;;;4961554;28;20570;-78
2023/07/29 00:04:14;;;;;;;8.73;6.77;;;;;;;;;;4962273;28;20049;-78
2023/07/29 00:06:40;;;;;;;8.10;6.68;;;;;;;;;;4974423;28;20030;-78
2023/07/29 00:09:05;;;;;;;8.35;6.50;;;;;;;;;;4977250;28;20034;-78
2023/07/29 00:11:33;;;;;;;9.18;6.57;;;;;;;;;;4972418;28;20107;-78
2023/07/29 00:13:59;;;;;;;8.85;6.72;;;;;;;;;;4958498;28;20472;-78
2023/07/29 00:16:25;;;;;;;8.60;6.70;;;;;;;;;;4988792;28;20458;-78
2023/07/29 00:18:51;;;;;;;9.25;7.15;;;;;;;;;;4982065;28;20052;-78
2023/07/29 00:21:16;;;;;;;8.93;6.93;;;;;;;;;;4978889;28;20038;-78
2023/07/29 00:23:41;;;;;;;10.13;7.18;;;;;;;;;;4981177;28;20034;-78
2023/07/29 00:26:07;;;;;;;8.20;5.93;;;;;;;;;;4971887;28;20058;-79
2023/07/29 00:28:32;;;;;;;9.70;6.50;;;;;;;;;;4978991;28;20470;-78
2023/07/29 00:30:58;;;;;;;10.02;6.80;;;;;;;;;;4985849;28;20038;-78
2023/07/29 00:33:23;;;;;;;8.88;6.40;;;;;;;;;;4980888;28;20034;-78
2023/07/29 00:35:48;;;;;;;9.07;6.28;;;;;;;;;;4968648;28;20053;-78
2023/07/29 00:38:14;;;;;;;7.93;6.10;;;;;;;;;;4983165;28;20054;-78
2023/07/29 00:40:39;;;;;;;8.63;6.60;;;;;;;;;;4979681;28;20504;-77
2023/07/29 00:43:04;;;;;;;10.07;6.95;;;;;;;;;;4976994;28;20057;-78
2023/07/29 00:45:31;;;;;;;8.32;6.35;;;;;;;;;;4977609;28;20062;-77
2023/07/29 00:47:57;;;;;;;8.63;6.67;;;;;;;;;;4995367;28;20096;-78
2023/07/29 00:50:22;;;;;;;8.82;6.80;;;;;;;;;;4977818;28;20042;-78
2023/07/29 00:52:49;;;;;;;9.40;6.72;;;;;;;;;;4988926;28;20030;-76
2023/07/29 00:55:14;;;;;;;9.18;6.90;;;;;;;;;;4992521;28;20042;-77
2023/07/29 00:57:40;;;;;;;10.15;6.45;;;;;;;;;;4995786;28;20046;-78
2023/07/29 01:00:06;;;;;;;8.95;6.65;;;;;;;;;;4978300;28;20049;-78
2023/07/29 01:05:06;;;;;;;7.93;6.50;;;;;;;;;;5108654;22;20090;-82
2023/07/29 01:07:54;;;;;;;9.13;6.90;;;;;;;;;;5019795;28;20506;-82
2023/07/29 01:10:35;;;;;;;9.25;6.57;;;;;;;;;;5032597;28;20036;-81
2023/07/29 01:13:13;;;;;;;8.70;6.75;;;;;;;;;;5033040;28;20536;-82
2023/07/29 01:15:54;;;;;;;8.98;7.00;;;;;;;;;;5015386;28;20037;-82
2023/07/29 01:18:31;;;;;;;9.43;7.20;;;;;;;;;;5059439;28;20427;-82
2023/07/29 01:20:59;;;;;;;10.05;6.97;;;;;;;;;;5035835;28;20422;-82
2023/07/29 01:23:32;;;;;;;9.15;6.43;;;;;;;;;;5035383;28;20465;-82
2023/07/29 01:25:57;;;;;;;8.70;6.60;;;;;;;;;;5010369;28;20108;-82
2023/07/29 01:28:23;;;;;;;9.85;7.57;;;;;;;;;;5034936;28;20116;-82
2023/07/29 01:30:53;;;;;;;8.55;6.93;;;;;;;;;;5025462;28;21022;-82
2023/07/29 01:33:22;;;;;;;10.98;7.07;;;;;;;;;;5012276;28;20567;-82
2023/07/29 01:36:02;;;;;;;11.02;7.28;;;;;;;;;;5007800;28;20077;-82
2023/07/29 01:38:34;;;;;;;9.07;6.38;;;;;;;;;;5007152;28;20033;-82
2023/07/29 01:41:03;;;;;;;7.63;6.07;;;;;;;;;;5028554;28;20205;-82
2023/07/29 01:43:29;;;;;;;10.48;7.13;;;;;;;;;;5026822;28;20048;-82
2023/07/29 01:45:55;;;;;;;8.70;6.55;;;;;;;;;;5034777;28;20081;-82
2023/07/29 01:48:23;;;;;;;8.85;7.10;;;;;;;;;;5018784;28;20107;-82
2023/07/29 01:50:48;;;;;;;8.48;6.35;;;;;;;;;;5021924;28;20063;-82
2023/07/29 01:53:14;;;;;;;8.73;7.10;;;;;;;;;;5024856;28;20727;-83
2023/07/29 01:55:41;;;;;;;12.25;7.00;;;;;;;;;;5023371;28;20128;-81
2023/07/29 01:58:06;;;;;;;10.03;7.23;;;;;;;;;;5022257;28;20059;-82
2023/07/29 02:00:32;;;;;;;8.52;6.65;;;;;;;;;;5008615;28;20284;-83
2023/07/29 02:02:59;;;;;;;7.75;5.93;;;;;;;;;;5021648;28;20087;-82
2023/07/29 02:05:28;;;;;;;7.60;6.38;;;;;;;;;;5028277;28;20033;-82
2023/07/29 02:07:53;;;;;;;10.60;6.80;;;;;;;;;;5030262;28;20037;-82
2023/07/29 02:10:19;;;;;;;8.77;6.45;;;;;;;;;;5019624;28;20039;-82
2023/07/29 02:12:44;;;;;;;10.68;7.25;;;;;;;;;;5020221;28;20033;-82
2023/07/29 02:15:10;;;;;;;9.57;7.18;;;;;;;;;;5022988;28;20040;-82
2023/07/29 02:17:36;;;;;;;9.07;6.53;;;;;;;;;;5027699;28;20041;-82
2023/07/29 02:20:03;;;;;;;8.27;6.63;;;;;;;;;;5035308;28;20041;-82
2023/07/29 02:22:29;;;;;;;8.27;6.30;;;;;;;;;;5021853;28;20033;-82
2023/07/29 02:24:54;;;;;;;7.57;6.22;;;;;;;;;;5045814;28;20037;-82
2023/07/29 02:27:19;;;;;;;7.60;6.45;;;;;;;;;;5026467;28;20033;-82
2023/07/29 02:29:47;;;;;;;8.85;6.70;;;;;;;;;;5037430;28;20028;-82
2023/07/29 02:32:14;;;;;;;8.05;6.60;;;;;;;;;;5021258;28;20033;-82
2023/07/29 02:34:39;;;;;;;8.32;6.40;;;;;;;;;;5034556;28;20033;-82
2023/07/29 02:37:05;;;;;;;8.60;6.45;;;;;;;;;;5021177;28;20056;-82
2023/07/29 02:39:30;;;;;;;10.30;6.78;;;;;;;;;;5009590;28;20040;-82
2023/07/29 02:41:58;;;;;;;8.02;6.38;;;;;;;;;;5022720;28;20032;-82
2023/07/29 02:44:23;;;;;;;9.30;6.97;;;;;;;;;;5014113;28;20120;-82
2023/07/29 02:46:49;;;;;;;9.95;7.20;;;;;;;;;;5035490;28;20456;-82
2023/07/29 02:49:14;;;;;;;8.60;6.85;;;;;;;;;;5038440;28;20503;-82
2023/07/29 02:51:40;;;;;;;9.40;7.22;;;;;;;;;;5018505;28;20033;-82
2023/07/29 02:54:06;;;;;;;9.77;6.88;;;;;;;;;;5022599;28;20081;-82
2023/07/29 02:56:31;;;;;;;9.38;7.00;;;;;;;;;;5024840;28;20063;-82
2023/07/29 02:58:56;;;;;;;9.00;6.97;;;;;;;;;;5023770;28;20040;-81
2023/07/29 03:01:22;;;;;;;8.95;7.00;;;;;;;;;;5016779;28;20033;-82
2023/07/29 03:03:54;;;;;;;9.40;6.88;;;;;;;;;;5019242;28;20045;-82
2023/07/29 03:06:19;;;;;;;9.07;6.65;;;;;;;;;;5013879;28;20384;-82
2023/07/29 03:08:45;;;;;;;10.25;6.88;;;;;;;;;;5015721;28;20034;-82
2023/07/29 03:11:13;;;;;;;10.63;7.00;;;;;;;;;;5005364;28;20037;-81
2023/07/29 03:13:38;;;;;;;8.93;6.97;;;;;;;;;;5019641;28;20116;-83
2023/07/29 03:16:12;;;;;;;9.20;7.50;;;;;;;;;;5025537;28;20137;-82
2023/07/29 03:18:38;;;;;;;9.88;7.07;;;;;;;;;;5020293;28;20072;-82
2023/07/29 03:21:04;;;;;;;9.32;6.88;;;;;;;;;;5032201;28;20057;-82
2023/07/29 03:23:30;;;;;;;10.75;7.20;;;;;;;;;;5030925;28;20037;-81
2023/07/29 03:25:58;;;;;;;9.13;7.00;;;;;;;;;;5006203;28;20524;-82
2023/07/29 03:28:26;;;;;;;9.95;7.45;;;;;;;;;;5019449;28;20034;-82
2023/07/29 03:30:51;;;;;;;;;;;;;;;;;;5019926;28;20048;-82
2023/07/29 03:33:16;;;;;;;10.77;7.47;;;;;;;;;;5029228;28;19917;-82
2023/07/29 03:35:44;;;;;;;11.07;7.45;;;;;;;;;;5000477;28;20045;-82
2023/07/29 03:38:09;;;;;;;;;;;;;;;;;;4997132;28;20069;-82
2023/07/29 03:40:35;;;;;;;10.35;6.70;;;;;;;;;;4994048;28;19956;-82
2023/07/29 03:43:00;;;;;;;9.05;6.80;;;;;;;;;;5000935;28;20037;-82
2023/07/29 03:45:26;;;;;;;9.90;7.10;;;;;;;;;;5021013;28;20100;-82
2023/07/29 03:47:51;;;;;;;9.13;7.25;;;;;;;;;;5021358;28;20033;-82
2023/07/29 03:50:17;;;;;;;9.52;7.40;;;;;;;;;;5031804;28;20078;-82
2023/07/29 03:52:44;;;;;;;9.25;7.00;;;;;;;;;;5033665;28;20037;-82
2023/07/29 03:55:10;;;;;;;9.20;7.47;;;;;;;;;;5020301;28;20044;-82
2023/07/29 03:57:35;;;;;;;9.60;7.40;;;;;;;;;;5024655;28;20091;-82
2023/07/29 04:00:01;;;;;;;10.05;7.45;;;;;;;;;;5021847;28;20044;-82
2023/07/29 04:02:26;;;;;;;8.55;7.30;;;;;;;;;;5017943;28;20598;-82
2023/07/29 04:04:52;;;;;;;11.38;7.30;;;;;;;;;;5008849;28;20411;-80
2023/07/29 04:07:17;;;;;;;9.27;7.65;;;;;;;;;;5018028;28;20516;-82
2023/07/29 04:09:43;;;;;;;10.10;7.50;;;;;;;;;;5009197;28;20029;-82
2023/07/29 04:12:09;;;;;;;9.65;8.00;;;;;;;;;;5005673;28;20061;-83
2023/07/29 04:14:35;;;;;;;8.82;6.97;;;;;;;;;;5015811;28;20034;-82
2023/07/29 04:17:00;;;;;;;9.15;7.03;;;;;;;;;;5007598;28;20057;-82
2023/07/29 04:19:26;;;;;;;11.32;7.18;;;;;;;;;;5004471;28;20030;-82
2023/07/29 04:21:54;;;;;;;8.48;6.93;;;;;;;;;;5033893;28;20037;-82
2023/07/29 04:24:20;;;;;;;9.25;7.18;;;;;;;;;;5012450;28;20463;-82
2023/07/29 04:26:45;;;;;;;9.25;7.28;;;;;;;;;;5046284;28;20034;-82
2023/07/29 04:29:11;;;;;;;8.18;6.82;;;;;;;;;;5008296;28;20544;-83
2023/07/29 04:31:37;;;;;;;8.45;6.63;;;;;;;;;;4999634;28;20378;-82
2023/07/29 04:34:02;;;;;;;9.88;7.47;;;;;;;;;;5016272;28;20045;-82
2023/07/29 04:36:28;;;;;;;9.32;7.32;;;;;;;;;;5013763;28;20030;-83
2023/07/29 04:38:53;;;;;;;9.90;7.13;;;;;;;;;;5003493;28;20711;-83
2023/07/29 04:41:26;;;;;;;9.35;7.13;;;;;;;;;;4999463;28;20037;-83
2023/07/29 04:43:52;;;;;;;10.05;7.35;;;;;;;;;;5000026;28;20117;-82
2023/07/29 04:46:18;;;;;;;10.25;7.97;;;;;;;;;;5006002;28;20167;-82
2023/07/29 04:48:43;;;;;;;9.18;7.43;;;;;;;;;;5007394;28;20369;-82
2023/07/29 04:51:19;;;;;;;10.93;7.20;;;;;;;;;;5014774;28;20038;-83
2023/07/29 04:53:44;;;;;;;8.77;7.25;;;;;;;;;;5004434;28;20397;-82
2023/07/29 04:56:10;;;;;;;8.32;6.97;;;;;;;;;;5021749;28;20033;-82
2023/07/29 04:58:35;;;;;;;10.10;6.85;;;;;;;;;;5000428;28;20041;-82
2023/07/29 05:01:04;;;;;;;10.07;6.80;;;;;;;;;;5016545;28;20429;-82
2023/07/29 05:03:32;;;;;;;7.32;6.30;;;;;;;;;;5015392;28;20049;-83
2023/07/29 05:05:59;;;;;;;9.05;6.88;;;;;;;;;;5002655;28;20502;-83
2023/07/29 05:08:27;;;;;;;9.40;7.20;;;;;;;;;;5016495;28;20397;-82
2023/07/29 05:10:55;;;;;;;9.68;6.97;;;;;;;;;;5013426;28;20055;-82
2023/07/29 05:13:21;;;;;;;10.30;6.82;;;;;;;;;;5019717;28;20029;-82
2023/07/29 05:15:50;;;;;;;8.00;6.43;;;;;;;;;;5003293;28;20040;-82
2023/07/29 05:18:16;;;;;;;8.77;6.13;;;;;;;;;;5033747;28;20056;-82
2023/07/29 05:20:41;;;;;;;8.68;6.80;;;;;;;;;;5048256;28;20503;-82
2023/07/29 05:23:07;;;;;;;7.22;5.80;;;;;;;;;;5006368;28;20033;-82
2023/07/29 05:25:41;;;;;;;6.50;5.47;;;;;;;;;;5044742;28;20113;-82
2023/07/29 05:28:07;;;;;;;7.60;5.93;;;;;;;;;;5014350;28;20069;-83
2023/07/29 05:30:36;;;;;;;7.93;6.20;;;;;;;;;;5016023;28;20461;-82
2023/07/29 05:33:02;;;;;;;8.27;5.18;;;;;;;;;;5031183;28;20080;-82
2023/07/29 05:35:28;;;;;;;7.38;5.07;;;;;;;;;;5013954;28;20092;-82
2023/07/29 05:37:53;;;;;;;11.15;6.18;;;;;;;;;;5008034;28;20496;-82
2023/07/29 05:40:19;;;;;;;7.05;5.60;;;;;;;;;;5000526;28;20393;-82
2023/07/29 05:42:45;;;;;;;7.00;5.63;;;;;;;;;;5030088;28;20033;-83
2023/07/29 05:45:10;;;;;;;8.25;6.30;;;;;;;;;;5019227;28;20033;-82
2023/07/29 05:47:38;;;;;;;6.85;5.25;;;;;;;;;;5022939;28;20030;-83
2023/07/29 05:50:04;;;;;;;7.25;4.90;;;;;;;;;;4992540;28;20116;-83
2023/07/29 05:52:30;;;;;;;6.30;5.07;;;;;;;;;;4990718;28;20037;-83
2023/07/29 05:54:56;;;;;;;8.90;4.72;;;;;;;;;;5004480;28;20037;-83
2023/07/29 05:57:21;;;;;;;6.75;4.95;;;;;;;;;;5016106;28;20703;-82
2023/07/29 05:59:53;;;;;;;6.38;5.13;;;;;;;;;;5018144;28;20041;-83
2023/07/29 06:02:18;;;;;;;6.93;5.00;;;;;;;;;;5004894;28;20612;-83
2023/07/29 06:04:44;;;;;;;7.13;5.28;;;;;;;;;;5014336;28;20041;-83
2023/07/29 06:07:09;;;;;;;7.65;5.40;;;;;;;;;;5005773;28;20388;-83
2023/07/29 06:09:35;;;;;;;8.10;5.07;;;;;;;;;;5006504;28;20492;-82
2023/07/29 06:12:00;;;;;;;8.00;5.20;;;;;;;;;;5015021;28;20507;-83
2023/07/29 06:14:26;;;;;;;6.63;5.07;;;;;;;;;;5029141;28;20056;-82
2023/07/29 06:16:51;;;;;;;8.82;4.93;;;;;;;;;;4996239;28;20628;-83
2023/07/29 06:19:18;;;;;;;7.32;4.90;;;;;;;;;;5004324;28;20041;-83
2023/07/29 06:21:44;;;;;;;5.80;4.37;;;;;;;;;;4999890;28;20038;-82
2023/07/29 06:24:09;;;;;;;8.35;4.63;;;;;;;;;;5006568;28;20512;-83
2023/07/29 06:26:34;;;;;;;5.32;3.80;;;;;;;;;;5021581;28;20144;-84
2023/07/29 06:29:00;;;;;;;5.53;4.03;;;;;;;;;;4995973;28;20041;-83
2023/07/29 06:31:25;;;;;;;5.20;3.70;;;;;;;;;;5011139;28;20042;-83
2023/07/29 06:33:51;;;;;;;5.40;3.70;;;;;;;;;;4998688;28;20065;-83
2023/07/29 06:36:16;;;;;;;6.32;3.53;;;;;;;;;;5029945;28;20038;-83
2023/07/29 06:38:42;;;;;;;4.78;3.20;;;;;;;;;;5004096;28;20084;-83
2023/07/29 06:41:07;;;;;;;4.10;3.00;;;;;;;;;;5011433;28;20068;-83
2023/07/29 06:43:33;;;;;;;6.03;3.30;;;;;;;;;;5014114;28;20034;-83
2023/07/29 06:46:01;;;;;;;5.10;3.17;;;;;;;;;;5005968;28;20034;-82
2023/07/29 06:48:27;;;;;;;4.13;2.60;;;;;;;;;;5033500;28;20437;-82
2023/07/29 06:50:52;;;;;;;4.15;3.28;;;;;;;;;;4993661;28;20053;-81
2023/07/29 06:53:18;;;;;;;5.78;2.67;;;;;;;;;;5013640;28;20123;-81
2023/07/29 06:55:48;;;;;;;5.80;2.90;;;;;;;;;;5001499;28;20086;-82
2023/07/29 06:58:14;;;;;;;4.30;2.90;;;;;;;;;;5036298;28;20041;-82
2023/07/29 07:00:39;;;;;;;4.82;3.00;;;;;;;;;;4995758;28;20041;-81
2023/07/29 07:03:05;;;;;;;4.03;2.80;;;;;;;;;;5017187;28;20044;-82
2023/07/29 07:05:30;;;;;;;5.38;3.00;;;;;;;;;;5020797;28;20392;-82
2023/07/29 07:07:56;;;;;;;3.90;2.55;;;;;;;;;;5011815;28;20037;-82
2023/07/29 07:10:21;;;;;;;3.78;2.67;;;;;;;;;;5007206;28;20183;-82
2023/07/29 07:12:47;;;;;;;4.18;3.05;;;;;;;;;;5022620;28;20043;-83
2023/07/29 07:15:12;;;;;;;3.83;2.72;;;;;;;;;;5003682;28;20401;-83
2023/07/29 07:17:38;;;;;;;5.18;2.50;;;;;;;;;;4999543;28;20030;-83
2023/07/29 07:20:05;;;;;;;5.40;2.53;;;;;;;;;;5011168;28;20038;-82
2023/07/29 07:22:31;;;;;;;4.75;2.60;;;;;;;;;;5034387;28;20034;-82
2023/07/29 07:24:56;;;;;;;4.35;2.50;;;;;;;;;;5001914;28;20101;-83
2023/07/29 07:27:22;;;;;;;4.63;2.50;;;;;;;;;;5003604;28;20038;-84
2023/07/29 07:29:47;;;;;;;3.22;2.40;;;;;;;;;;4997764;28;20025;-84
2023/07/29 07:32:13;;;;;;;5.82;2.67;;;;;;;;;;4994194;28;20033;-83
2023/07/29 07:34:40;;;;;;;5.30;2.67;;;;;;;;;;4997635;28;20034;-83
2023/07/29 07:37:06;;;;;;;4.10;2.70;;;;;;;;;;5004882;28;20651;-83
2023/07/29 07:39:32;;;;;;;3.38;2.20;;;;;;;;;;5014319;28;20038;-83
2023/07/29 07:41:58;;;;;;;3.20;2.00;;;;;;;;;;4994971;28;20038;-83
2023/07/29 07:44:26;;;;;;;4.38;2.65;;;;;;;;;;5020087;28;20038;-83
2023/07/29 07:46:52;;;;;;;3.33;2.30;;;;;;;;;;4996357;28;20037;-83
2023/07/29 07:49:20;;;;;;;3.83;2.53;;;;;;;;;;5006694;28;20116;-83
2023/07/29 07:51:45;;;;;;;3.13;2.13;;;;;;;;;;5000399;28;20056;-83
2023/07/29 07:54:11;;;;;;;3.00;2.03;;;;;;;;;;5001391;28;20034;-83
2023/07/29 07:56:36;;;;;;;4.20;2.33;;;;;;;;;;5010927;28;20866;-84
2023/07/29 07:59:02;;;;;;;3.55;2.20;;;;;;;;;;5002402;28;20041;-84
2023/07/29 08:01:40;;;;;;;3.10;2.08;;;;;;;;;;5019850;28;20033;-83
2023/07/29 08:04:05;;;;;;;4.13;2.10;;;;;;;;;;5026329;28;20412;-83
2023/07/29 08:06:32;;;;;;;3.50;2.10;;;;;;;;;;5013661;28;20046;-83
2023/07/29 08:08:58;;;;;;;3.15;2.03;;;;;;;;;;5024879;28;20056;-83
2023/07/29 08:11:24;;;;;;;3.45;2.15;;;;;;;;;;4979134;28;20064;-82
2023/07/29 08:14:13;;;;;;;4.32;2.40;;;;;;;;;;5001487;28;20114;-84
2023/07/29 08:16:38;;;;;;;3.20;2.00;;;;;;;;;;5018232;28;20042;-83
2023/07/29 08:19:04;;;;;;;3.65;2.40;;;;;;;;;;5006076;28;20040;-83
2023/07/29 08:21:29;;;;;;;3.40;2.08;;;;;;;;;;5003346;28;20072;-83
2023/07/29 08:23:55;;;;;;;2.97;1.92;;;;;;;;;;5031597;28;20045;-84
2023/07/29 08:26:21;;;;;;;4.93;2.20;;;;;;;;;;4992209;28;20082;-83
2023/07/29 08:28:46;;;;;;;5.55;1.80;;;;;;;;;;5000131;28;20362;-84
2023/07/29 08:31:12;;;;;;;3.22;1.80;;;;;;;;;;5029748;28;20042;-83
2023/07/29 08:33:37;;;;;;;4.07;1.60;;;;;;;;;;5002825;28;20049;-83
2023/07/29 08:36:09;;;;;;;4.25;1.70;;;;;;;;;;5031761;28;20267;-84
2023/07/29 08:38:34;;;;;;;3.35;1.80;;;;;;;;;;5001660;28;20049;-83
2023/07/29 08:41:14;;;;;;;2.90;1.90;;;;;;;;;;5003581;28;20032;-83
2023/07/29 08:43:53;;;;;;;2.92;1.88;;;;;;;;;;5025598;28;20496;-83
2023/07/29 08:46:24;;;;;;;3.33;2.03;;;;;;;;;;5047585;28;20416;-83
2023/07/29 08:48:51;;;;;;;3.75;1.58;;;;;;;;;;5006791;28;20033;-83
2023/07/29 08:51:17;;;;;;;4.10;1.80;;;;;;;;;;5006133;28;20034;-83
2023/07/29 08:53:42;;;;;;;3.70;1.80;;;;;;;;;;4997053;28;20054;-83
2023/07/29 08:56:08;;;;;;;2.80;1.70;;;;;;;;;;5016203;28;20084;-82
2023/07/29 08:58:34;;;;;;;2.88;1.50;;;;;;;;;;5006867;28;20102;-82
2023/07/29 09:01:06;;;;;;;3.92;2.03;;;;;;;;;;5015476;28;20124;-83
2023/07/29 09:03:31;;;;;;;4.05;1.77;;;;;;;;;;5001247;28;20473;-82
2023/07/29 09:05:58;;;;;;;3.17;1.80;;;;;;;;;;5000769;28;20132;-82
2023/07/29 09:08:27;;;;;;;3.40;1.80;;;;;;;;;;4999104;28;20045;-83
2023/07/29 09:10:54;;;;;;;4.20;1.75;;;;;;;;;;5032580;28;20436;-82
2023/07/29 09:13:29;;;;;;;2.25;1.40;;;;;;;;;;5013612;28;20033;-82
2023/07/29 09:15:57;;;;;;;3.67;1.90;;;;;;;;;;5010796;28;20038;-83
2023/07/29 09:18:23;;;;;;;;;;;;;;;;;;5032253;28;20042;-83
2023/07/29 09:20:49;;;;;;;5.28;1.63;;;;;;;;;;4998604;28;19910;-84
2023/07/29 09:23:15;;;;;;;4.30;1.60;;;;;;;;;;4991310;28;20040;-83
2023/07/29 09:25:50;;;;;;;2.75;1.58;;;;;;;;;;5031309;28;20931;-82
2023/07/29 09:28:16;;;;;;;3.10;1.75;;;;;;;;;;5019686;28;20072;-83
2023/07/29 09:30:44;;;;;;;3.35;1.30;;;;;;;;;;4996066;28;20026;-83
2023/07/29 09:33:10;;;;;;;2.83;1.60;;;;;;;;;;5047619;28;20396;-82
2023/07/29 09:35:37;;;;;;;3.10;1.50;;;;;;;;;;5013912;28;20033;-83
2023/07/29 09:38:15;;;;;;;2.70;1.30;;;;;;;;;;5020094;28;20038;-83
2023/07/29 09:40:41;;;;;;;2.47;1.33;;;;;;;;;;5027880;28;21501;-83
2023/07/29 09:43:09;;;;;;;2.50;1.30;;;;;;;;;;5012758;28;20041;-83
2023/07/29 09:45:39;;;;;;;2.83;1.50;;;;;;;;;;5031838;28;20036;-83
2023/07/29 09:48:16;;;;;;;2.40;1.20;;;;;;;;;;5008255;28;20045;-83
2023/07/29 09:50:41;;;;;;;2.35;1.30;;;;;;;;;;4992097;28;20428;-83
2023/07/29 09:53:07;;;;;;;2.45;1.30;;;;;;;;;;5000673;28;20124;-83
2023/07/29 09:55:33;;;;;;;3.75;1.23;;;;;;;;;;5006250;28;20469;-82
2023/07/29 09:58:06;;;;;;;4.00;1.40;;;;;;;;;;5014508;28;20037;-83
2023/07/29 10:00:39;;;;;;;2.22;1.20;;;;;;;;;;4993191;28;20372;-83
2023/07/29 10:03:08;;;;;;;4.15;1.60;;;;;;;;;;5000807;28;20128;-83
2023/07/29 10:05:36;;;;;;;3.70;1.10;;;;;;;;;;5032387;28;20037;-83
2023/07/29 10:08:02;;;;;;;3.47;1.20;;;;;;;;;;4995602;28;20524;-83
2023/07/29 10:10:28;;;;;;;3.13;1.08;;;;;;;;;;5010740;28;20033;-83
2023/07/29 10:12:54;;;;;;;2.50;1.10;;;;;;;;;;5004378;28;20043;-83
2023/07/29 10:15:22;;;;;;;3.67;1.20;;;;;;;;;;5001750;28;20026;-83
2023/07/29 10:17:50;;;;;;;2.47;1.20;;;;;;;;;;5008269;28;20110;-83
2023/07/29 10:20:16;;;;;;;4.05;1.35;;;;;;;;;;5014206;28;20505;-83
2023/07/29 10:22:43;;;;;;;2.92;1.33;;;;;;;;;;5007035;28;20049;-83
2023/07/29 10:25:27;;;;;;;2.70;1.20;;;;;;;;;;5030259;28;20536;-83
2023/07/29 10:27:56;;;;;;;2.67;1.30;;;;;;;;;;5017529;28;20041;-82
2023/07/29 10:30:24;;;;;;;1.83;1.10;;;;;;;;;;5012858;28;20447;-83
2023/07/29 10:32:49;;;;;;;2.58;1.17;;;;;;;;;;5033119;28;20041;-83
2023/07/29 10:35:17;;;;;;;2.63;1.20;;;;;;;;;;5006769;28;20086;-82
2023/07/29 10:37:45;;;;;;;2.00;1.00;;;;;;;;;;5010825;28;20141;-83
2023/07/29 10:40:11;;;;;;;2.65;1.20;;;;;;;;;;5005100;28;20041;-83
2023/07/29 10:42:38;;;;;;;2.53;1.10;;;;;;;;;;5013671;28;20034;-83
2023/07/29 10:45:20;;;;;;;2.00;1.03;;;;;;;;;;4986578;28;20272;-82
2023/07/29 10:47:47;;;;;;;2.10;1.00;;;;;;;;;;4980018;28;20068;-83
2023/07/29 10:50:20;;;;;;;2.47;1.05;;;;;;;;;;5000458;28;20036;-83
2023/07/29 10:52:49;;;;;;;1.73;0.93;;;;;;;;;;5019542;28;20064;-83
2023/07/29 10:55:34;;;;;;;3.05;1.00;;;;;;;;;;5025745;28;20029;-83
2023/07/29 10:58:13;;;;;;;2.20;1.20;;;;;;;;;;5004259;28;20759;-83
2023/07/29 11:00:43;;;;;;;5.15;1.20;;;;;;;;;;5020936;28;20049;-82
2023/07/29 11:03:09;;;;;;;4.05;1.35;;;;;;;;;;4994696;28;20077;-83
2023/07/29 11:05:53;;;;;;;3.63;1.50;;;;;;;;;;5015480;28;20468;-83
2023/07/29 11:08:29;;;;;;;3.67;1.70;;;;;;;;;;5030151;28;20088;-84
2023/07/29 11:11:03;;;;;;;6.95;2.92;;;;;;;;;;4999823;28;20038;-82
2023/07/29 11:13:34;;;;;;;8.48;2.80;;;;;;;;;;5009788;28;20880;-82
2023/07/29 11:16:01;;;;;;;6.22;2.40;;;;;;;;;;5015454;28;20382;-83
2023/07/29 11:18:28;;;;;;;4.50;1.90;;;;;;;;;;5007140;28;20037;-82
2023/07/29 11:20:54;;;;;;;3.17;1.52;;;;;;;;;;5037600;28;20113;-82
2023/07/29 11:23:19;;;;;;;3.40;1.80;;;;;;;;;;5006865;28;20729;-82
2023/07/29 11:25:48;;;;;;;4.22;1.80;;;;;;;;;;4996262;28;20030;-82
2023/07/29 11:28:13;;;;;;;4.25;1.70;;;;;;;;;;5002665;28;20341;-82
2023/07/29 11:30:39;;;;;;;3.33;1.70;;;;;;;;;;5010900;28;20129;-82
2023/07/29 11:33:04;;;;;;;2.75;1.40;;;;;;;;;;5001178;28;20030;-82
2023/07/29 11:35:32;;;;;;;3.97;1.73;;;;;;;;;;5021618;28;20056;-82
2023/07/29 11:38:06;;;;;;;4.40;1.90;;;;;;;;;;5016084;28;20112;-82
2023/07/29 11:40:32;;;;;;;4.25;1.50;;;;;;;;;;4986564;28;20049;-82
2023/07/29 11:42:57;;;;;;;3.85;1.67;;;;;;;;;;4991573;28;20049;-82
2023/07/29 11:45:23;;;;;;;3.13;1.40;;;;;;;;;;5017530;28;20087;-83
2023/07/29 11:47:49;;;;;;;3.67;1.65;;;;;;;;;;5004757;28;20038;-82
2023/07/29 11:50:15;;;;;;;3.80;1.33;;;;;;;;;;5012439;28;20485;-82
2023/07/29 11:52:42;;;;;;;3.35;1.40;;;;;;;;;;4998668;28;20088;-82
2023/07/29 11:55:08;;;;;;;3.47;1.58;;;;;;;;;;5021345;28;20164;-82
2023/07/29 11:57:44;;;;;;;2.42;1.08;;;;;;;;;;4989915;28;20434;-82
2023/07/29 12:00:11;;;;;;;2.35;1.20;;;;;;;;;;5006115;28;20056;-82
2023/07/29 12:02:38;;;;;;;;;;;;;;;;;;4996784;28;20080;-82
2023/07/29 12:05:08;;;;;;;2.83;1.27;;;;;;;;;;5001446;28;20391;-82
2023/07/29 12:07:33;;;;;;;22.75;7.72;;;;;;;;;;4997941;28;20042;-82
2023/07/29 12:10:03;;;;;;;14.88;5.80;;;;;;;;;;5005472;28;20049;-82
2023/07/29 12:12:28;;;;;;;9.65;3.20;;;;;;;;;;5004175;28;20057;-82
2023/07/29 12:14:54;;;;;;;9.52;3.10;;;;;;;;;;5004189;28;20038;-82
2023/07/29 12:17:20;;;;;;;5.15;2.00;;;;;;;;;;5011163;28;20916;-82
2023/07/29 12:19:45;;;;;;;3.20;1.42;;;;;;;;;;5001215;28;20500;-82
2023/07/29 12:22:10;;;;;;;4.28;1.95;;;;;;;;;;5017335;28;20091;-82
2023/07/29 12:24:38;;;;;;;5.28;1.88;;;;;;;;;;5001136;28;20542;-82
2023/07/29 12:27:04;;;;;;;;;;;;;;;;;;5019215;28;20045;-82
2023/07/29 12:29:29;;;;;;;3.85;1.58;;;;;;;;;;5006445;28;19917;-82
2023/07/29 12:31:59;;;;;;;3.72;1.90;;;;;;;;;;5005546;28;20029;-82
2023/07/29 12:34:28;;;;;;;4.03;1.70;;;;;;;;;;5018782;28;20037;-82
2023/07/29 12:36:55;;;;;;;3.38;1.75;;;;;;;;;;5007580;28;20559;-82
2023/07/29 12:39:27;;;;;;;4.30;1.60;;;;;;;;;;5007445;28;20036;-82
2023/07/29 12:41:57;;;;;;;3.50;1.80;;;;;;;;;;5027236;28;20029;-82
2023/07/29 12:44:29;;;;;;;3.75;1.85;;;;;;;;;;5010166;28;20096;-82
2023/07/29 12:46:54;;;;;;;3.25;1.70;;;;;;;;;;5041409;28;20075;-82
2023/07/29 12:49:20;;;;;;;3.65;1.70;;;;;;;;;;5021905;28;20461;-82
2023/07/29 12:51:45;;;;;;;3.25;1.65;;;;;;;;;;5012032;28;20044;-82
2023/07/29 12:54:11;;;;;;;2.95;1.48;;;;;;;;;;4998084;28;20438;-82
2023/07/29 12:56:36;;;;;;;3.30;1.85;;;;;;;;;;5031648;28;20037;-82
2023/07/29 12:59:03;;;;;;;3.70;2.00;;;;;;;;;;5017153;28;20049;-82
2023/07/29 13:01:28;;;;;;;3.73;1.60;;;;;;;;;;5007291;28;20493;-81
2023/07/29 13:03:54;;;;;;;3.05;1.80;;;;;;;;;;5037469;28;20133;-81
2023/07/29 13:06:20;;;;;;;3.45;1.90;;;;;;;;;;5023210;28;20041;-81
2023/07/29 13:08:46;;;;;;;3.25;1.95;;;;;;;;;;5018870;28;20037;-82
2023/07/29 13:11:14;;;;;;;3.05;1.75;;;;;;;;;;5010758;28;22132;-81
2023/07/29 13:13:40;;;;;;;3.25;1.90;;;;;;;;;;4975081;28;20391;-81
2023/07/29 13:16:06;;;;;;;3.92;1.90;;;;;;;;;;5002968;28;20070;-82
2023/07/29 13:18:31;;;;;;;3.67;1.90;;;;;;;;;;5013695;28;20092;-82
2023/07/29 13:21:00;;;;;;;3.80;2.10;;;;;;;;;;5036089;28;20041;-82
2023/07/29 13:23:26;;;;;;;3.83;1.90;;;;;;;;;;5003085;28;20069;-81
2023/07/29 13:25:51;;;;;;;3.03;1.70;;;;;;;;;;4998787;28;20440;-82
2023/07/29 13:28:17;;;;;;;4.07;1.70;;;;;;;;;;5014620;28;20037;-82
2023/07/29 13:30:47;;;;;;;3.15;1.88;;;;;;;;;;4995689;28;20049;-82
2023/07/29 13:33:12;;;;;;;2.85;1.48;;;;;;;;;;5001434;28;20030;-81
2023/07/29 13:35:38;;;;;;;3.00;1.50;;;;;;;;;;5046929;28;20034;-81
2023/07/29 13:38:03;;;;;;;3.08;1.45;;;;;;;;;;5006704;28;20037;-81
2023/07/29 13:40:29;;;;;;;4.68;1.50;;;;;;;;;;5013516;28;20480;-81
2023/07/29 13:42:55;;;;;;;3.60;1.40;;;;;;;;;;5009824;28;20045;-82
2023/07/29 13:45:21;;;;;;;3.75;1.30;;;;;;;;;;5002830;28;20528;-81
2023/07/29 13:47:46;;;;;;;2.67;1.23;;;;;;;;;;5002464;28;20129;-82
2023/07/29 13:50:12;;;;;;;2.40;1.20;;;;;;;;;;5001012;28;20385;-81
2023/07/29 13:52:38;;;;;;;2.05;1.10;;;;;;;;;;4978949;28;20029;-81
2023/07/29 13:55:04;;;;;;;2.72;1.20;;;;;;;;;;5019030;28;20056;-81
2023/07/29 13:57:29;;;;;;;2.95;1.23;;;;;;;;;;5010224;28;20048;-81
2023/07/29 13:59:55;;;;;;;2.35;1.10;;;;;;;;;;5020170;28;20025;-81
2023/07/29 14:02:21;;;;;;;2.60;1.20;;;;;;;;;;5004348;28;20116;-82
2023/07/29 14:04:46;;;;;;;2.15;0.90;;;;;;;;;;4997436;28;20072;-81
2023/07/29 14:07:11;;;;;;;1.65;0.80;;;;;;;;;;5017212;28;20120;-81
2023/07/29 14:09:38;;;;;;;2.10;0.80;;;;;;;;;;5047709;28;20043;-82
2023/07/29 14:12:04;;;;;;;2.17;1.08;;;;;;;;;;5005890;28;20091;-81
2023/07/29 14:14:29;;;;;;;1.55;0.70;;;;;;;;;;4998865;28;20068;-82
2023/07/29 14:16:55;;;;;;;2.75;0.90;;;;;;;;;;5016756;28;20058;-82
2023/07/29 14:19:20;;;;;;;2.47;0.73;;;;;;;;;;4997563;28;20026;-82
2023/07/29 14:21:51;;;;;;;1.65;0.75;;;;;;;;;;5016901;28;20086;-82
2023/07/29 14:24:17;;;;;;;2.88;0.90;;;;;;;;;;5015390;28;20088;-82
2023/07/29 14:26:42;;;;;;;2.08;0.75;;;;;;;;;;5015272;28;20050;-82
2023/07/29 14:29:07;;;;;;;2.03;0.85;;;;;;;;;;5010982;28;20080;-82
2023/07/29 14:31:33;;;;;;;3.50;1.00;;;;;;;;;;5000374;28;20037;-82
2023/07/29 14:33:59;;;;;;;1.92;0.80;;;;;;;;;;5012631;28;20061;-82
2023/07/29 14:36:25;;;;;;;2.22;0.80;;;;;;;;;;5009667;28;20065;-82
2023/07/29 14:38:50;;;;;;;3.50;1.10;;;;;;;;;;5014722;28;20099;-82
2023/07/29 14:41:24;;;;;;;3.67;1.10;;;;;;;;;;5046796;28;20030;-82
2023/07/29 14:43:50;;;;;;;2.85;0.80;;;;;;;;;;5018060;28;20033;-82
2023/07/29 14:46:15;;;;;;;3.15;1.00;;;;;;;;;;5025168;28;20069;-82